sensor_id;sensor_type;location;lat;lon;timestamp;P1;durP1;ratioP1;P2;durP2;ratioP2
4583;SDS011;2304;47.606;12.186;2022-07-29T00:02:19;5.30;;;4.30;;
4583;SDS011;2304;47.606;12.186;2022-07-29T00:07:21;5.43;;;4.73;;
4583;SDS011;2304;47.606;12.186;2022-07-29T00:12:23;6.73;;;4.43;;
4583;SDS011;2304;47.606;12.186;2022-07-29T00:17:27;7.93;;;4.40;;
4583;SDS011;2304;47.606;12.186;2022-07-29T00:22:29;5.20;;;3.20;;
4583;SDS011;2304;47.606;12.186;2022-07-29T00:27:31;7.00;;;4.13;;
4583;SDS011;2304;47.606;12.186;2022-07-29T00:32:34;4.90;;;3.37;;
4583;SDS011;2304;47.606;12.186;2022-07-29T00:37:36;4.90;;;3.60;;
4583;SDS011;2304;47.606;12.186;2022-07-29T00:42:41;4.93;;;3.43;;
4583;SDS011;2304;47.606;12.186;2022-07-29T00:47:45;4.83;;;3.43;;
4583;SDS011;2304;47.606;12.186;2022-07-29T00:52:47;4.50;;;3.43;;
4583;SDS011;2304;47.606;12.186;2022-07-29T00:57:49;4.23;;;3.20;;
4583;SDS011;2304;47.606;12.186;2022-07-29T01:02:52;4.80;;;3.13;;
4583;SDS011;2304;47.606;12.186;2022-07-29T01:07:54;3.20;;;2.83;;
4583;SDS011;2304;47.606;12.186;2022-07-29T01:13:00;3.63;;;3.00;;
4583;SDS011;2304;47.606;12.186;2022-07-29T01:18:16;3.43;;;3.00;;
4583;SDS011;2304;47.606;12.186;2022-07-29T01:23:40;3.90;;;3.43;;
4583;SDS011;2304;47.606;12.186;2022-07-29T01:29:03;5.03;;;3.50;;
4583;SDS011;2304;47.606;12.186;2022-07-29T01:34:08;4.77;;;3.10;;
4583;SDS011;2304;47.606;12.186;2022-07-29T01:39:16;3.70;;;3.20;;
4583;SDS011;2304;47.606;12.186;2022-07-29T01:44:24;5.57;;;3.63;;
4583;SDS011;2304;47.606;12.186;2022-07-29T01:49:34;6.80;;;3.50;;
4583;SDS011;2304;47.606;12.186;2022-07-29T01:54:41;5.20;;;3.00;;
4583;SDS011;2304;47.606;12.186;2022-07-29T01:59:47;4.57;;;3.30;;
4583;SDS011;2304;47.606;12.186;2022-07-29T02:04:52;5.00;;;3.30;;
4583;SDS011;2304;47.606;12.186;2022-07-29T02:09:55;3.90;;;3.00;;
4583;SDS011;2304;47.606;12.186;2022-07-29T02:15:01;5.50;;;3.20;;
4583;SDS011;2304;47.606;12.186;2022-07-29T02:20:05;4.53;;;3.60;;
4583;SDS011;2304;47.606;12.186;2022-07-29T02:25:09;5.97;;;3.20;;
4583;SDS011;2304;47.606;12.186;2022-07-29T02:30:13;4.40;;;3.00;;
4583;SDS011;2304;47.606;12.186;2022-07-29T02:35:16;4.23;;;3.47;;
4583;SDS011;2304;47.606;12.186;2022-07-29T02:40:19;4.83;;;3.17;;
4583;SDS011;2304;47.606;12.186;2022-07-29T02:45:22;5.27;;;3.37;;
4583;SDS011;2304;47.606;12.186;2022-07-29T02:50:27;5.90;;;3.50;;
4583;SDS011;2304;47.606;12.186;2022-07-29T02:55:34;7.17;;;4.03;;
4583;SDS011;2304;47.606;12.186;2022-07-29T03:00:42;4.80;;;3.30;;
4583;SDS011;2304;47.606;12.186;2022-07-29T03:05:47;6.23;;;3.03;;
4583;SDS011;2304;47.606;12.186;2022-07-29T03:10:49;9.17;;;3.60;;
4583;SDS011;2304;47.606;12.186;2022-07-29T03:15:55;4.87;;;3.90;;
4583;SDS011;2304;47.606;12.186;2022-07-29T03:20:57;6.10;;;3.50;;
4583;SDS011;2304;47.606;12.186;2022-07-29T03:25:59;5.63;;;3.93;;
4583;SDS011;2304;47.606;12.186;2022-07-29T03:31:03;6.03;;;4.23;;
4583;SDS011;2304;47.606;12.186;2022-07-29T03:36:04;6.40;;;4.10;;
4583;SDS011;2304;47.606;12.186;2022-07-29T03:41:07;6.67;;;4.27;;
4583;SDS011;2304;47.606;12.186;2022-07-29T03:46:14;7.20;;;4.20;;
4583;SDS011;2304;47.606;12.186;2022-07-29T03:51:18;6.53;;;4.20;;
4583;SDS011;2304;47.606;12.186;2022-07-29T03:56:21;6.10;;;4.13;;
4583;SDS011;2304;47.606;12.186;2022-07-29T04:01:25;6.40;;;4.37;;
4583;SDS011;2304;47.606;12.186;2022-07-29T04:06:30;6.43;;;4.20;;
4583;SDS011;2304;47.606;12.186;2022-07-29T04:11:39;6.33;;;4.57;;
4583;SDS011;2304;47.606;12.186;2022-07-29T04:16:43;5.70;;;4.40;;
4583;SDS011;2304;47.606;12.186;2022-07-29T04:21:45;10.10;;;4.63;;
4583;SDS011;2304;47.606;12.186;2022-07-29T04:26:47;7.03;;;4.20;;
4583;SDS011;2304;47.606;12.186;2022-07-29T04:31:50;8.77;;;5.03;;
4583;SDS011;2304;47.606;12.186;2022-07-29T04:36:52;7.47;;;4.90;;
4583;SDS011;2304;47.606;12.186;2022-07-29T04:41:54;6.90;;;4.67;;
4583;SDS011;2304;47.606;12.186;2022-07-29T04:46:57;9.63;;;5.23;;
4583;SDS011;2304;47.606;12.186;2022-07-29T04:51:59;8.03;;;4.70;;
4583;SDS011;2304;47.606;12.186;2022-07-29T04:57:01;10.20;;;4.50;;
4583;SDS011;2304;47.606;12.186;2022-07-29T05:02:04;8.27;;;4.60;;
4583;SDS011;2304;47.606;12.186;2022-07-29T05:07:06;5.73;;;4.50;;
4583;SDS011;2304;47.606;12.186;2022-07-29T05:12:08;6.80;;;4.20;;
4583;SDS011;2304;47.606;12.186;2022-07-29T05:17:12;3.90;;;2.87;;
4583;SDS011;2304;47.606;12.186;2022-07-29T05:22:14;4.43;;;3.00;;
4583;SDS011;2304;47.606;12.186;2022-07-29T05:27:15;4.33;;;3.30;;
4583;SDS011;2304;47.606;12.186;2022-07-29T05:32:19;5.13;;;4.00;;
4583;SDS011;2304;47.606;12.186;2022-07-29T05:37:21;6.97;;;2.93;;
4583;SDS011;2304;47.606;12.186;2022-07-29T05:42:23;3.80;;;2.90;;
4583;SDS011;2304;47.606;12.186;2022-07-29T05:47:26;4.30;;;3.30;;
4583;SDS011;2304;47.606;12.186;2022-07-29T05:52:28;4.60;;;3.20;;
4583;SDS011;2304;47.606;12.186;2022-07-29T05:57:30;4.70;;;3.50;;
4583;SDS011;2304;47.606;12.186;2022-07-29T06:02:34;4.70;;;3.67;;
4583;SDS011;2304;47.606;12.186;2022-07-29T06:07:36;6.20;;;3.00;;
4583;SDS011;2304;47.606;12.186;2022-07-29T06:12:38;4.37;;;3.37;;
4583;SDS011;2304;47.606;12.186;2022-07-29T06:17:41;4.33;;;3.00;;
4583;SDS011;2304;47.606;12.186;2022-07-29T06:22:43;5.40;;;3.50;;
4583;SDS011;2304;47.606;12.186;2022-07-29T06:27:45;3.43;;;3.07;;
4583;SDS011;2304;47.606;12.186;2022-07-29T06:32:48;4.27;;;2.80;;
4583;SDS011;2304;47.606;12.186;2022-07-29T06:37:50;4.57;;;3.13;;
4583;SDS011;2304;47.606;12.186;2022-07-29T06:42:52;7.50;;;3.23;;
4583;SDS011;2304;47.606;12.186;2022-07-29T06:47:55;4.53;;;3.10;;
4583;SDS011;2304;47.606;12.186;2022-07-29T06:52:57;4.50;;;2.83;;
4583;SDS011;2304;47.606;12.186;2022-07-29T06:57:58;4.83;;;3.43;;
4583;SDS011;2304;47.606;12.186;2022-07-29T07:03:02;4.20;;;2.87;;
4583;SDS011;2304;47.606;12.186;2022-07-29T07:08:04;3.07;;;2.63;;
4583;SDS011;2304;47.606;12.186;2022-07-29T07:13:06;4.20;;;2.97;;
4583;SDS011;2304;47.606;12.186;2022-07-29T07:18:10;7.20;;;2.80;;
4583;SDS011;2304;47.606;12.186;2022-07-29T07:23:12;4.93;;;3.00;;
4583;SDS011;2304;47.606;12.186;2022-07-29T07:28:14;3.30;;;2.73;;
4583;SDS011;2304;47.606;12.186;2022-07-29T07:33:17;3.77;;;3.00;;
4583;SDS011;2304;47.606;12.186;2022-07-29T07:38:19;5.63;;;2.97;;
4583;SDS011;2304;47.606;12.186;2022-07-29T07:43:20;4.10;;;2.97;;
4583;SDS011;2304;47.606;12.186;2022-07-29T07:48:24;3.80;;;2.97;;
4583;SDS011;2304;47.606;12.186;2022-07-29T07:53:26;4.40;;;2.73;;
4583;SDS011;2304;47.606;12.186;2022-07-29T07:58:29;3.50;;;2.43;;
4583;SDS011;2304;47.606;12.186;2022-07-29T08:03:33;3.57;;;2.57;;
4583;SDS011;2304;47.606;12.186;2022-07-29T08:08:35;4.60;;;2.73;;
4583;SDS011;2304;47.606;12.186;2022-07-29T08:13:37;3.40;;;2.40;;
4583;SDS011;2304;47.606;12.186;2022-07-29T08:18:41;3.93;;;2.60;;
4583;SDS011;2304;47.606;12.186;2022-07-29T08:23:44;4.43;;;2.50;;
4583;SDS011;2304;47.606;12.186;2022-07-29T08:28:49;3.27;;;2.40;;
4583;SDS011;2304;47.606;12.186;2022-07-29T08:33:52;3.87;;;2.63;;
4583;SDS011;2304;47.606;12.186;2022-07-29T08:38:56;6.90;;;2.67;;
4583;SDS011;2304;47.606;12.186;2022-07-29T08:43:58;4.13;;;3.03;;
4583;SDS011;2304;47.606;12.186;2022-07-29T08:49:01;3.70;;;2.53;;
4583;SDS011;2304;47.606;12.186;2022-07-29T08:54:03;3.60;;;2.20;;
4583;SDS011;2304;47.606;12.186;2022-07-29T08:59:06;4.40;;;2.10;;
4583;SDS011;2304;47.606;12.186;2022-07-29T09:04:11;3.57;;;2.20;;
4583;SDS011;2304;47.606;12.186;2022-07-29T09:09:14;3.30;;;2.43;;
4583;SDS011;2304;47.606;12.186;2022-07-29T09:14:16;3.50;;;2.50;;
4583;SDS011;2304;47.606;12.186;2022-07-29T09:19:23;3.10;;;2.30;;
4583;SDS011;2304;47.606;12.186;2022-07-29T09:24:35;4.83;;;2.53;;
4583;SDS011;2304;47.606;12.186;2022-07-29T09:29:39;3.47;;;2.93;;
4583;SDS011;2304;47.606;12.186;2022-07-29T09:34:42;3.40;;;2.87;;
4583;SDS011;2304;47.606;12.186;2022-07-29T09:39:44;4.00;;;2.43;;
4583;SDS011;2304;47.606;12.186;2022-07-29T09:44:47;3.00;;;2.33;;
4583;SDS011;2304;47.606;12.186;2022-07-29T09:49:52;7.70;;;2.87;;
4583;SDS011;2304;47.606;12.186;2022-07-29T09:55:04;3.57;;;3.10;;
4583;SDS011;2304;47.606;12.186;2022-07-29T10:00:07;4.30;;;2.77;;
4583;SDS011;2304;47.606;12.186;2022-07-29T10:05:18;4.43;;;3.07;;
4583;SDS011;2304;47.606;12.186;2022-07-29T10:10:22;3.10;;;2.50;;
4583;SDS011;2304;47.606;12.186;2022-07-29T10:15:26;4.93;;;3.10;;
4583;SDS011;2304;47.606;12.186;2022-07-29T10:20:33;2.97;;;2.60;;
4583;SDS011;2304;47.606;12.186;2022-07-29T10:25:35;4.50;;;2.80;;
4583;SDS011;2304;47.606;12.186;2022-07-29T10:30:37;2.57;;;2.10;;
4583;SDS011;2304;47.606;12.186;2022-07-29T10:35:47;3.60;;;2.63;;
4583;SDS011;2304;47.606;12.186;2022-07-29T10:41:10;4.03;;;2.30;;
4583;SDS011;2304;47.606;12.186;2022-07-29T10:46:28;2.70;;;2.40;;
4583;SDS011;2304;47.606;12.186;2022-07-29T10:52:00;3.80;;;2.97;;
4583;SDS011;2304;47.606;12.186;2022-07-29T11:02:45;3.73;;;2.30;;
4583;SDS011;2304;47.606;12.186;2022-07-29T11:24:22;5.97;;;2.40;;
4583;SDS011;2304;47.606;12.186;2022-07-29T11:29:27;2.93;;;2.37;;
4583;SDS011;2304;47.606;12.186;2022-07-29T11:34:30;4.03;;;1.80;;
4583;SDS011;2304;47.606;12.186;2022-07-29T11:39:35;2.30;;;1.63;;
4583;SDS011;2304;47.606;12.186;2022-07-29T11:50:00;3.53;;;2.13;;
4583;SDS011;2304;47.606;12.186;2022-07-29T11:55:05;3.40;;;2.10;;
4583;SDS011;2304;47.606;12.186;2022-07-29T12:00:08;2.87;;;2.00;;
4583;SDS011;2304;47.606;12.186;2022-07-29T12:05:12;4.17;;;2.33;;
4583;SDS011;2304;47.606;12.186;2022-07-29T12:10:15;3.60;;;2.17;;
4583;SDS011;2304;47.606;12.186;2022-07-29T12:15:17;3.27;;;1.90;;
4583;SDS011;2304;47.606;12.186;2022-07-29T12:20:24;3.20;;;2.30;;
4583;SDS011;2304;47.606;12.186;2022-07-29T12:25:32;2.60;;;2.20;;
4583;SDS011;2304;47.606;12.186;2022-07-29T12:30:36;3.23;;;2.60;;
4583;SDS011;2304;47.606;12.186;2022-07-29T12:35:44;3.20;;;2.40;;
4583;SDS011;2304;47.606;12.186;2022-07-29T12:40:49;2.67;;;2.10;;
4583;SDS011;2304;47.606;12.186;2022-07-29T12:45:54;4.40;;;2.70;;
4583;SDS011;2304;47.606;12.186;2022-07-29T12:50:58;2.67;;;2.33;;
4583;SDS011;2304;47.606;12.186;2022-07-29T12:56:03;2.80;;;2.30;;
4583;SDS011;2304;47.606;12.186;2022-07-29T13:01:08;3.83;;;2.80;;
4583;SDS011;2304;47.606;12.186;2022-07-29T13:06:26;5.63;;;3.03;;
4583;SDS011;2304;47.606;12.186;2022-07-29T13:11:41;2.70;;;2.45;;
4583;SDS011;2304;47.606;12.186;2022-07-29T13:17:00;4.37;;;2.80;;
4583;SDS011;2304;47.606;12.186;2022-07-29T13:22:05;4.20;;;2.40;;
4583;SDS011;2304;47.606;12.186;2022-07-29T13:27:08;2.97;;;2.60;;
4583;SDS011;2304;47.606;12.186;2022-07-29T13:32:10;3.05;;;2.45;;
4583;SDS011;2304;47.606;12.186;2022-07-29T13:37:13;4.12;;;2.35;;
4583;SDS011;2304;47.606;12.186;2022-07-29T13:42:16;5.60;;;2.42;;
4583;SDS011;2304;47.606;12.186;2022-07-29T13:47:18;4.57;;;2.92;;
4583;SDS011;2304;47.606;12.186;2022-07-29T13:52:20;2.62;;;2.42;;
4583;SDS011;2304;47.606;12.186;2022-07-29T13:57:24;2.97;;;2.40;;
4583;SDS011;2304;47.606;12.186;2022-07-29T14:02:26;4.97;;;3.00;;
4583;SDS011;2304;47.606;12.186;2022-07-29T14:07:28;3.97;;;2.60;;
4583;SDS011;2304;47.606;12.186;2022-07-29T14:12:31;3.73;;;2.93;;
4583;SDS011;2304;47.606;12.186;2022-07-29T14:17:33;5.40;;;3.07;;
4583;SDS011;2304;47.606;12.186;2022-07-29T14:22:35;4.13;;;3.40;;
4583;SDS011;2304;47.606;12.186;2022-07-29T14:27:38;3.30;;;3.00;;
4583;SDS011;2304;47.606;12.186;2022-07-29T14:32:40;5.20;;;2.90;;
4583;SDS011;2304;47.606;12.186;2022-07-29T14:37:42;4.03;;;2.63;;
4583;SDS011;2304;47.606;12.186;2022-07-29T14:42:45;3.23;;;2.87;;
4583;SDS011;2304;47.606;12.186;2022-07-29T14:47:47;5.20;;;3.27;;
4583;SDS011;2304;47.606;12.186;2022-07-29T14:52:50;4.37;;;3.33;;
4583;SDS011;2304;47.606;12.186;2022-07-29T14:57:53;4.63;;;3.20;;
4583;SDS011;2304;47.606;12.186;2022-07-29T15:02:56;5.23;;;3.50;;
4583;SDS011;2304;47.606;12.186;2022-07-29T15:07:58;4.00;;;3.00;;
4583;SDS011;2304;47.606;12.186;2022-07-29T15:13:01;3.63;;;2.77;;
4583;SDS011;2304;47.606;12.186;2022-07-29T15:18:03;6.03;;;3.00;;
4583;SDS011;2304;47.606;12.186;2022-07-29T15:23:05;4.57;;;3.17;;
4583;SDS011;2304;47.606;12.186;2022-07-29T15:28:10;3.43;;;2.53;;
4583;SDS011;2304;47.606;12.186;2022-07-29T15:33:12;3.90;;;3.00;;
4583;SDS011;2304;47.606;12.186;2022-07-29T15:38:15;9.03;;;3.60;;
4583;SDS011;2304;47.606;12.186;2022-07-29T15:43:18;8.63;;;3.63;;
4583;SDS011;2304;47.606;12.186;2022-07-29T15:48:20;6.27;;;2.50;;
4583;SDS011;2304;47.606;12.186;2022-07-29T15:53:22;5.63;;;3.13;;
4583;SDS011;2304;47.606;12.186;2022-07-29T15:58:26;4.80;;;3.00;;
4583;SDS011;2304;47.606;12.186;2022-07-29T16:03:28;4.23;;;2.60;;
4583;SDS011;2304;47.606;12.186;2022-07-29T16:08:30;5.53;;;3.10;;
4583;SDS011;2304;47.606;12.186;2022-07-29T16:13:33;5.50;;;2.30;;
4583;SDS011;2304;47.606;12.186;2022-07-29T16:18:35;3.33;;;2.70;;
4583;SDS011;2304;47.606;12.186;2022-07-29T16:23:36;4.37;;;2.63;;
4583;SDS011;2304;47.606;12.186;2022-07-29T16:28:40;4.40;;;3.10;;
4583;SDS011;2304;47.606;12.186;2022-07-29T16:33:42;4.90;;;3.30;;
4583;SDS011;2304;47.606;12.186;2022-07-29T16:38:44;5.03;;;3.10;;
4583;SDS011;2304;47.606;12.186;2022-07-29T16:43:47;3.43;;;2.10;;
4583;SDS011;2304;47.606;12.186;2022-07-29T16:48:49;4.80;;;2.80;;
4583;SDS011;2304;47.606;12.186;2022-07-29T16:53:51;8.40;;;3.93;;
4583;SDS011;2304;47.606;12.186;2022-07-29T16:58:54;5.90;;;2.30;;
4583;SDS011;2304;47.606;12.186;2022-07-29T17:03:57;8.87;;;2.50;;
4583;SDS011;2304;47.606;12.186;2022-07-29T17:09:06;5.40;;;2.50;;
4583;SDS011;2304;47.606;12.186;2022-07-29T17:14:11;4.53;;;2.50;;
4583;SDS011;2304;47.606;12.186;2022-07-29T17:19:13;4.67;;;2.50;;
4583;SDS011;2304;47.606;12.186;2022-07-29T17:24:15;5.07;;;2.73;;
4583;SDS011;2304;47.606;12.186;2022-07-29T17:29:18;8.30;;;3.60;;
4583;SDS011;2304;47.606;12.186;2022-07-29T17:34:20;7.77;;;3.37;;
4583;SDS011;2304;47.606;12.186;2022-07-29T17:39:22;6.40;;;3.50;;
4583;SDS011;2304;47.606;12.186;2022-07-29T17:44:25;4.27;;;3.17;;
4583;SDS011;2304;47.606;12.186;2022-07-29T17:49:27;4.67;;;2.70;;
4583;SDS011;2304;47.606;12.186;2022-07-29T17:54:29;6.60;;;3.30;;
4583;SDS011;2304;47.606;12.186;2022-07-29T17:59:32;7.93;;;4.20;;
4583;SDS011;2304;47.606;12.186;2022-07-29T18:04:34;3.80;;;2.23;;
4583;SDS011;2304;47.606;12.186;2022-07-29T18:09:36;5.50;;;2.23;;
4583;SDS011;2304;47.606;12.186;2022-07-29T18:14:39;6.40;;;3.17;;
4583;SDS011;2304;47.606;12.186;2022-07-29T18:19:41;3.97;;;2.30;;
4583;SDS011;2304;47.606;12.186;2022-07-29T18:24:43;5.33;;;2.80;;
4583;SDS011;2304;47.606;12.186;2022-07-29T18:29:46;7.17;;;2.63;;
4583;SDS011;2304;47.606;12.186;2022-07-29T18:34:48;6.50;;;3.10;;
4583;SDS011;2304;47.606;12.186;2022-07-29T18:39:50;8.30;;;3.20;;
4583;SDS011;2304;47.606;12.186;2022-07-29T18:44:53;3.93;;;2.83;;
4583;SDS011;2304;47.606;12.186;2022-07-29T18:49:56;4.77;;;2.73;;
4583;SDS011;2304;47.606;12.186;2022-07-29T18:54:58;4.10;;;2.80;;
4583;SDS011;2304;47.606;12.186;2022-07-29T19:00:03;6.00;;;3.13;;
4583;SDS011;2304;47.606;12.186;2022-07-29T19:05:06;5.27;;;2.90;;
4583;SDS011;2304;47.606;12.186;2022-07-29T19:10:09;6.80;;;3.60;;
4583;SDS011;2304;47.606;12.186;2022-07-29T19:15:13;3.63;;;2.80;;
4583;SDS011;2304;47.606;12.186;2022-07-29T19:20:15;5.83;;;2.97;;
4583;SDS011;2304;47.606;12.186;2022-07-29T19:25:17;5.47;;;2.93;;
4583;SDS011;2304;47.606;12.186;2022-07-29T19:30:21;6.97;;;3.20;;
4583;SDS011;2304;47.606;12.186;2022-07-29T19:35:22;4.60;;;3.10;;
4583;SDS011;2304;47.606;12.186;2022-07-29T19:40:27;5.47;;;2.90;;
4583;SDS011;2304;47.606;12.186;2022-07-29T19:45:31;5.27;;;3.00;;
4583;SDS011;2304;47.606;12.186;2022-07-29T19:50:33;4.97;;;2.57;;
4583;SDS011;2304;47.606;12.186;2022-07-29T19:55:34;8.30;;;2.90;;
4583;SDS011;2304;47.606;12.186;2022-07-29T20:00:38;3.53;;;2.47;;
4583;SDS011;2304;47.606;12.186;2022-07-29T20:05:39;4.03;;;2.83;;
4583;SDS011;2304;47.606;12.186;2022-07-29T20:10:42;5.07;;;3.10;;
4583;SDS011;2304;47.606;12.186;2022-07-29T20:15:45;5.20;;;3.43;;
4583;SDS011;2304;47.606;12.186;2022-07-29T20:20:47;5.03;;;3.23;;
4583;SDS011;2304;47.606;12.186;2022-07-29T20:25:49;4.10;;;2.90;;
4583;SDS011;2304;47.606;12.186;2022-07-29T20:30:53;5.87;;;3.53;;
4583;SDS011;2304;47.606;12.186;2022-07-29T20:35:54;5.60;;;3.67;;
4583;SDS011;2304;47.606;12.186;2022-07-29T20:40:56;6.00;;;2.90;;
4583;SDS011;2304;47.606;12.186;2022-07-29T20:45:59;3.93;;;2.97;;
4583;SDS011;2304;47.606;12.186;2022-07-29T20:51:01;4.20;;;3.27;;
4583;SDS011;2304;47.606;12.186;2022-07-29T20:56:04;5.40;;;3.43;;
4583;SDS011;2304;47.606;12.186;2022-07-29T21:01:08;6.17;;;2.90;;
4583;SDS011;2304;47.606;12.186;2022-07-29T21:06:10;5.77;;;3.63;;
4583;SDS011;2304;47.606;12.186;2022-07-29T21:11:14;3.20;;;2.73;;
4583;SDS011;2304;47.606;12.186;2022-07-29T21:16:17;5.30;;;3.03;;
4583;SDS011;2304;47.606;12.186;2022-07-29T21:21:19;4.30;;;3.07;;
4583;SDS011;2304;47.606;12.186;2022-07-29T21:26:22;8.03;;;3.50;;
4583;SDS011;2304;47.606;12.186;2022-07-29T21:31:25;4.03;;;2.80;;
4583;SDS011;2304;47.606;12.186;2022-07-29T21:36:27;2.87;;;2.30;;
4583;SDS011;2304;47.606;12.186;2022-07-29T21:41:29;4.73;;;2.93;;
4583;SDS011;2304;47.606;12.186;2022-07-29T21:46:32;4.90;;;2.87;;
4583;SDS011;2304;47.606;12.186;2022-07-29T21:51:35;3.63;;;2.83;;
4583;SDS011;2304;47.606;12.186;2022-07-29T21:56:37;3.97;;;2.80;;
4583;SDS011;2304;47.606;12.186;2022-07-29T22:01:40;4.13;;;2.73;;
4583;SDS011;2304;47.606;12.186;2022-07-29T22:06:42;6.83;;;2.97;;
4583;SDS011;2304;47.606;12.186;2022-07-29T22:11:44;3.10;;;2.50;;
4583;SDS011;2304;47.606;12.186;2022-07-29T22:16:48;3.20;;;2.90;;
4583;SDS011;2304;47.606;12.186;2022-07-29T22:21:49;5.43;;;2.80;;
4583;SDS011;2304;47.606;12.186;2022-07-29T22:26:51;5.23;;;2.60;;
4583;SDS011;2304;47.606;12.186;2022-07-29T22:31:55;7.20;;;3.17;;
4583;SDS011;2304;47.606;12.186;2022-07-29T22:36:57;7.03;;;2.90;;
4583;SDS011;2304;47.606;12.186;2022-07-29T22:41:59;5.27;;;3.50;;
4583;SDS011;2304;47.606;12.186;2022-07-29T22:47:03;7.50;;;3.70;;
4583;SDS011;2304;47.606;12.186;2022-07-29T22:52:05;6.97;;;3.00;;
4583;SDS011;2304;47.606;12.186;2022-07-29T22:57:08;3.23;;;2.90;;
4583;SDS011;2304;47.606;12.186;2022-07-29T23:02:11;7.53;;;3.60;;
4583;SDS011;2304;47.606;12.186;2022-07-29T23:07:13;5.20;;;3.43;;
4583;SDS011;2304;47.606;12.186;2022-07-29T23:12:14;4.17;;;3.20;;
4583;SDS011;2304;47.606;12.186;2022-07-29T23:17:17;4.60;;;2.70;;
4583;SDS011;2304;47.606;12.186;2022-07-29T23:22:19;3.70;;;3.10;;
4583;SDS011;2304;47.606;12.186;2022-07-29T23:27:21;6.17;;;3.10;;
4583;SDS011;2304;47.606;12.186;2022-07-29T23:32:25;4.80;;;3.37;;
4583;SDS011;2304;47.606;12.186;2022-07-29T23:37:26;3.60;;;2.70;;
4583;SDS011;2304;47.606;12.186;2022-07-29T23:42:28;4.27;;;2.97;;
4583;SDS011;2304;47.606;12.186;2022-07-29T23:47:32;4.07;;;2.70;;
4583;SDS011;2304;47.606;12.186;2022-07-29T23:52:33;5.03;;;2.67;;
4583;SDS011;2304;47.606;12.186;2022-07-29T23:57:35;4.90;;;3.30;;
